Time;durP1;ratioP1;P1;durP2;ratioP2;P2;SDS_P1;SDS_P2;PMS_P1;PMS_P2;Temp;Humidity;BMP_temperature;BMP_pressure;BME280_temperature;BME280_humidity;BME280_pressure;Samples;Min_cycle;Max_cycle;Signal;HPM_P1;HPM_P2
2024/02/01 00:07:28;;;;;;;16.85;6.93;;;8.60;99.90;;;;;;20657457;28;20552;-40
2024/02/01 00:17:30;;;;;;;18.83;8.27;;;8.90;99.90;;;;;;20666587;28;20127;-40
2024/02/01 00:27:30;;;;;;;17.77;7.18;;;9.00;99.90;;;;;;20670684;28;20058;-40
2024/02/01 00:37:31;;;;;;;20.03;7.03;;;9.10;99.90;;;;;;20668248;28;20038;-40
2024/02/01 00:47:32;;;;;;;20.02;7.03;;;9.20;99.90;;;;;;20662715;28;20464;-40
2024/02/01 00:57:32;;;;;;;19.08;7.25;;;9.10;99.90;;;;;;20662804;28;20057;-40
2024/02/01 01:07:33;;;;;;;20.45;7.35;;;9.20;99.90;;;;;;20663094;28;20410;-40
2024/02/01 01:17:34;;;;;;;23.55;6.63;;;9.40;99.90;;;;;;20668977;28;20050;-40
2024/02/01 01:27:35;;;;;;;21.45;7.43;;;9.50;99.90;;;;;;20673020;28;20050;-40
2024/02/01 01:37:36;;;;;;;23.38;6.30;;;9.60;99.90;;;;;;20672067;28;20035;-40
2024/02/01 01:47:37;;;;;;;23.13;6.53;;;9.70;99.90;;;;;;20662392;28;20068;-39
2024/02/01 01:57:39;;;;;;;25.85;6.50;;;9.70;99.90;;;;;;20656195;28;20118;-40
2024/02/01 02:07:40;;;;;;;24.50;6.10;;;9.70;99.90;;;;;;20661657;28;20053;-39
2024/02/01 02:17:40;;;;;;;22.65;6.40;;;9.70;99.90;;;;;;20659325;28;20040;-39
2024/02/01 02:27:42;;;;;;;14.10;5.20;;;9.50;99.90;;;;;;20657874;28;20034;-40
2024/02/01 02:37:45;;;;;;;24.42;5.05;;;9.50;99.90;;;;;;20654826;28;20037;-39
2024/02/01 02:47:46;;;;;;;20.58;3.78;;;9.30;99.90;;;;;;20655266;28;20072;-40
2024/02/01 02:57:47;;;;;;;17.10;3.08;;;9.00;99.90;;;;;;20648905;28;20042;-39
2024/02/01 03:07:47;;;;;;;24.40;3.17;;;8.60;99.90;;;;;;20640778;28;20034;-39
2024/02/01 03:17:51;;;;;;;19.88;2.95;;;8.30;99.90;;;;;;20647507;28;20426;-39
2024/02/01 03:27:52;;;;;;;21.08;2.20;;;8.10;99.90;;;;;;20652166;28;20232;-39
2024/02/01 03:37:52;;;;;;;19.83;2.78;;;7.80;99.90;;;;;;20654594;28;20050;-39
2024/02/01 03:47:53;;;;;;;15.23;2.20;;;7.50;99.90;;;;;;20660605;28;20042;-39
2024/02/01 03:57:59;;;;;;;15.75;2.13;;;7.10;99.90;;;;;;20672398;28;20039;-39
2024/02/01 04:07:59;;;;;;;20.33;2.33;;;6.80;99.90;;;;;;20672075;28;20098;-39
2024/02/01 04:18:01;;;;;;;20.42;2.67;;;6.40;99.90;;;;;;20668502;28;20038;-39
2024/02/01 04:28:08;;;;;;;16.73;2.42;;;6.10;99.90;;;;;;20672117;28;20050;-39
2024/02/01 04:38:09;;;;;;;14.18;1.75;;;5.90;99.90;;;;;;20671170;28;20572;-39
2024/02/01 04:48:10;;;;;;;9.98;1.30;;;5.60;99.90;;;;;;20668742;28;20115;-41
2024/02/01 04:58:11;;;;;;;15.55;2.60;;;5.40;99.90;;;;;;20668208;28;20069;-41
2024/02/01 05:08:15;;;;;;;14.90;2.17;;;5.10;99.90;;;;;;20672903;28;20062;-39
2024/02/01 05:18:15;;;;;;;14.20;1.45;;;4.90;99.90;;;;;;20671473;28;20046;-39
2024/02/01 05:28:17;;;;;;;11.65;2.13;;;4.70;99.90;;;;;;20674153;28;20037;-39
2024/02/01 05:38:17;;;;;;;8.85;1.92;;;4.50;99.90;;;;;;20671896;28;20068;-40
2024/02/01 05:48:18;;;;;;;15.02;2.47;;;4.40;99.90;;;;;;20675073;28;20038;-39
2024/02/01 05:58:19;;;;;;;12.65;2.17;;;4.30;99.90;;;;;;20676034;28;20038;-40
2024/02/01 06:08:20;;;;;;;13.15;2.03;;;4.20;99.90;;;;;;20672723;28;20571;-39
2024/02/01 06:18:20;;;;;;;11.10;1.37;;;4.10;99.90;;;;;;20667395;28;20096;-40
2024/02/01 06:28:23;;;;;;;16.42;1.98;;;4.00;99.90;;;;;;20674089;28;20465;-40
2024/02/01 06:38:35;;;;;;;12.60;1.90;;;3.90;99.90;;;;;;20674604;28;20486;-40
2024/02/01 06:48:50;;;;;;;10.82;1.63;;;3.80;99.90;;;;;;20668044;28;20148;-40
2024/02/01 06:59:06;;;;;;;9.48;1.40;;;3.70;99.90;;;;;;20666867;28;20058;-40
2024/02/01 07:19:52;;;;;;;10.57;1.85;;;3.60;99.90;;;;;;20663532;28;20042;-39
2024/02/01 08:00:50;;;;;;;13.57;2.22;;;3.60;99.90;;;;;;20667183;28;20046;-39
2024/02/01 08:10:57;;;;;;;11.25;2.03;;;3.60;99.90;;;;;;20663601;28;20046;-39
2024/02/01 08:20:57;;;;;;;16.10;1.93;;;3.70;99.90;;;;;;20661478;28;20046;-40
2024/02/01 08:31:17;;;;;;;19.52;2.50;;;3.80;99.90;;;;;;20664147;28;20043;-40
2024/02/01 08:41:17;;;;;;;20.30;2.50;;;4.10;99.90;;;;;;20678802;28;20381;-39
2024/02/01 08:51:18;;;;;;;14.43;3.10;;;4.50;99.90;;;;;;20673469;28;20042;-40
2024/02/01 09:01:26;;;;;;;15.85;2.63;;;4.70;99.90;;;;;;20674641;28;20042;-39
2024/02/01 09:11:28;;;;;;;19.25;3.05;;;4.80;99.90;;;;;;20671469;28;20034;-39
2024/02/01 09:21:29;;;;;;;22.25;2.65;;;5.20;99.90;;;;;;20666563;28;20045;-39
2024/02/01 09:31:30;;;;;;;20.33;2.63;;;5.50;99.90;;;;;;20660899;28;20034;-40
2024/02/01 09:41:31;;;;;;;24.40;3.37;;;5.90;99.90;;;;;;20658595;28;20457;-39
2024/02/01 09:51:31;;;;;;;16.60;3.13;;;6.40;99.90;;;;;;20662283;28;20754;-40
2024/02/01 10:01:32;;;;;;;27.38;4.15;;;6.70;99.90;;;;;;20662438;28;20045;-39
2024/02/01 10:11:33;;;;;;;33.13;3.78;;;7.20;99.90;;;;;;20655244;28;20041;-40
2024/02/01 10:21:35;;;;;;;21.20;3.17;;;7.40;99.90;;;;;;20663992;28;20050;-39
2024/02/01 10:31:42;;;;;;;24.10;3.55;;;7.60;96.10;;;;;;20659812;28;20128;-41
2024/02/01 10:41:58;;;;;;;26.67;4.28;;;7.90;60.90;;;;;;20650594;28;20587;-41
2024/02/01 10:51:59;;;;;;;28.58;3.85;;;8.10;42.50;;;;;;20662799;28;20038;-41
2024/02/01 11:02:01;;;;;;;28.08;3.10;;;8.40;30.00;;;;;;20650241;28;20116;-41
2024/02/01 11:12:03;;;;;;;23.92;3.35;;;8.90;14.20;;;;;;20655291;28;20508;-40
2024/02/01 11:22:04;;;;;;;27.23;3.78;;;9.20;2.10;;;;;;20651563;28;20046;-38
2024/02/01 11:32:05;;;;;;;21.58;3.42;;;9.50;1.00;;;;;;20651270;28;20034;-38
2024/02/01 11:42:06;;;;;;;16.70;2.78;;;9.80;1.00;;;;;;20662157;28;20456;-39
2024/02/01 11:52:15;;;;;;;16.13;2.85;;;10.30;1.00;;;;;;20665223;28;20377;-38
2024/02/01 12:02:16;;;;;;;16.63;2.58;;;10.30;1.00;;;;;;20669789;28;20069;-39
2024/02/01 12:12:23;;;;;;;17.65;2.67;;;10.10;1.00;;;;;;20677509;28;20153;-38
2024/02/01 12:22:28;;;;;;;14.93;2.50;;;10.00;1.00;;;;;;20679445;28;20043;-38
2024/02/01 12:32:29;;;;;;;17.05;2.70;;;10.10;1.00;;;;;;20664334;28;20045;-38
2024/02/01 12:42:32;;;;;;;20.25;2.72;;;10.10;1.00;;;;;;20655997;28;20069;-38
2024/02/01 12:52:34;;;;;;;21.33;2.80;;;10.00;1.00;;;;;;20659553;28;20409;-39
2024/02/01 13:02:34;;;;;;;23.55;2.83;;;10.30;1.00;;;;;;20663459;28;20502;-39
2024/02/01 13:12:36;;;;;;;15.63;2.40;;;10.50;1.00;;;;;;20664064;28;20046;-39
2024/02/01 13:22:36;;;;;;;19.85;2.85;;;10.40;1.00;;;;;;20657028;28;20136;-39
2024/02/01 13:32:37;;;;;;;17.65;2.85;;;10.30;1.00;;;;;;20660307;28;20891;-39
2024/02/01 13:42:38;;;;;;;18.63;2.93;;;10.60;1.00;;;;;;20655683;28;20148;-39
2024/02/01 13:52:38;;;;;;;15.85;2.90;;;11.10;1.00;;;;;;20652777;28;20911;-38
2024/02/01 14:02:39;;;;;;;15.90;2.73;;;11.40;1.00;;;;;;20658311;28;20030;-38
2024/02/01 14:12:42;;;;;;;26.77;4.80;;;11.20;1.00;;;;;;20656167;28;21133;-38
2024/02/01 14:22:43;;;;;;;17.80;2.72;;;10.60;1.00;;;;;;20658191;28;20458;-38
2024/02/01 14:32:44;;;;;;;15.07;2.95;;;10.10;1.00;;;;;;20657930;28;20392;-38
2024/02/01 14:42:44;;;;;;;18.67;3.10;;;10.00;1.00;;;;;;20653958;28;20500;-38
2024/02/01 14:52:45;;;;;;;19.25;2.90;;;9.90;1.00;;;;;;20659212;28;20056;-41
2024/02/01 15:02:46;;;;;;;17.60;2.90;;;9.90;1.00;;;;;;20657804;28;20112;-39
2024/02/01 15:12:46;;;;;;;17.95;3.10;;;9.40;1.00;;;;;;20653571;28;20065;-39
2024/02/01 15:22:47;;;;;;;24.45;3.20;;;9.20;1.00;;;;;;20653528;28;20041;-39
2024/02/01 15:32:48;;;;;;;20.38;2.60;;;9.00;1.00;;;;;;20648389;28;20038;-39
2024/02/01 15:42:48;;;;;;;20.50;2.53;;;8.90;1.00;;;;;;20653067;28;20088;-39
2024/02/01 15:52:49;;;;;;;22.27;2.83;;;8.80;1.00;;;;;;20667077;28;20038;-39
2024/02/01 16:02:51;;;;;;;16.17;3.05;;;8.70;1.00;;;;;;20670706;28;20486;-39
2024/02/01 16:12:52;;;;;;;17.65;3.08;;;8.40;1.00;;;;;;20668412;28;20164;-39
2024/02/01 16:22:53;;;;;;;22.73;3.05;;;8.10;1.00;;;;;;20668384;28;20033;-39
2024/02/01 16:32:55;;;;;;;18.48;2.88;;;7.80;1.00;;;;;;20662245;28;20046;-39
2024/02/01 16:42:56;;;;;;;21.92;3.50;;;7.60;1.00;;;;;;20663323;28;20193;-39
2024/02/01 16:52:58;;;;;;;17.55;2.78;;;7.20;1.00;;;;;;20668922;28;20068;-39
2024/02/01 17:03:05;;;;;;;14.45;3.30;;;7.00;1.20;;;;;;20671836;28;20042;-39
2024/02/01 17:13:06;;;;;;;18.37;3.80;;;6.90;5.70;;;;;;20679117;28;20231;-39
2024/02/01 17:23:08;;;;;;;23.30;3.50;;;6.70;9.30;;;;;;20679966;28;20478;-38
2024/02/01 17:33:50;;;;;;;19.25;2.95;;;6.50;12.00;;;;;;20672308;28;20049;-41
2024/02/01 17:43:50;;;;;;;23.65;3.65;;;6.70;11.90;;;;;;20668769;28;20053;-40
2024/02/01 17:53:54;;;;;;;25.88;3.63;;;6.70;18.10;;;;;;20656959;28;20037;-41
2024/02/01 18:04:16;;;;;;;19.38;3.30;;;6.60;21.40;;;;;;20660393;28;20042;-41
2024/02/01 18:14:17;;;;;;;20.67;3.10;;;6.50;23.30;;;;;;20675036;28;20042;-41
2024/02/01 18:24:38;;;;;;;17.77;3.55;;;6.40;27.10;;;;;;20663416;28;20080;-41
2024/02/01 18:34:39;;;;;;;18.48;3.47;;;6.30;32.70;;;;;;20666504;28;20053;-41
2024/02/01 18:44:40;;;;;;;17.50;3.42;;;6.10;35.30;;;;;;20657786;28;21682;-41
2024/02/01 18:54:40;;;;;;;20.33;3.72;;;6.00;35.10;;;;;;20663079;28;20164;-40
2024/02/01 19:04:41;;;;;;;19.77;3.45;;;6.00;50.80;;;;;;20660617;28;20562;-41
2024/02/01 19:14:49;;;;;;;23.17;3.95;;;6.10;52.10;;;;;;20665777;28;20459;-39
2024/02/01 19:24:50;;;;;;;18.52;4.13;;;6.20;49.40;;;;;;20660510;28;20193;-40
2024/02/01 19:34:51;;;;;;;19.13;5.05;;;6.10;54.50;;;;;;20662300;28;20371;-40
2024/02/01 19:44:51;;;;;;;35.88;11.93;;;5.80;61.50;;;;;;20661262;28;20053;-40
2024/02/01 19:54:52;;;;;;;23.55;7.22;;;5.70;51.10;;;;;;20664399;28;20046;-40
2024/02/01 20:04:53;;;;;;;15.32;5.70;;;5.60;58.30;;;;;;20658422;28;20636;-41
2024/02/01 20:14:53;;;;;;;22.42;5.88;;;5.60;77.70;;;;;;20666687;28;20141;-41
2024/02/01 20:24:54;;;;;;;18.80;4.80;;;5.70;90.30;;;;;;20669780;28;20607;-41
2024/02/01 20:34:54;;;;;;;27.50;4.93;;;5.90;75.40;;;;;;20675065;28;20494;-39
2024/02/01 20:44:56;;;;;;;23.92;5.32;;;6.00;84.30;;;;;;20672183;28;20042;-40
2024/02/01 20:55:23;;;;;;;19.00;4.68;;;6.10;93.50;;;;;;20675378;28;20045;-40
2024/02/01 21:05:42;;;;;;;20.37;4.53;;;6.20;81.90;;;;;;20681159;28;20069;-40
2024/02/01 21:15:45;;;;;;;25.65;4.70;;;6.30;66.30;;;;;;20675836;28;20096;-40
2024/02/01 21:26:17;;;;;;;18.63;4.75;;;6.30;82.60;;;;;;20671336;28;20061;-40
2024/02/01 21:36:18;;;;;;;21.50;5.45;;;6.30;79.40;;;;;;20666242;28;20120;-40
2024/02/01 21:46:19;;;;;;;22.20;5.25;;;6.40;70.70;;;;;;20672676;28;20045;-39
2024/02/01 21:56:20;;;;;;;26.80;5.90;;;6.40;65.80;;;;;;20685875;28;20046;-39
2024/02/01 22:06:20;;;;;;;18.60;5.63;;;6.50;53.70;;;;;;20686057;28;20076;-40
2024/02/01 22:16:21;;;;;;;16.90;4.63;;;6.50;57.40;;;;;;20682321;28;20046;-40
2024/02/01 22:26:21;;;;;;;22.88;6.22;;;6.40;64.40;;;;;;20682526;28;20484;-40
2024/02/01 22:36:22;;;;;;;24.88;5.45;;;6.40;61.40;;;;;;20679814;28;20568;-40
2024/02/01 22:46:23;;;;;;;17.48;5.10;;;6.40;68.80;;;;;;20683969;28;20041;-40
2024/02/01 22:56:25;;;;;;;18.83;4.70;;;6.50;68.50;;;;;;20698865;28;20053;-39
2024/02/01 23:06:26;;;;;;;21.80;5.57;;;6.50;65.50;;;;;;20680749;28;20050;-39
2024/02/01 23:16:26;;;;;;;18.95;4.28;;;6.50;51.90;;;;;;20678345;28;20483;-39
2024/02/01 23:26:27;;;;;;;17.58;3.95;;;6.50;51.70;;;;;;20683456;28;20058;-40
2024/02/01 23:36:28;;;;;;;20.27;4.00;;;6.50;51.70;;;;;;20684533;28;20061;-40
2024/02/01 23:46:29;;;;;;;16.08;3.38;;;6.50;55.30;;;;;;20669774;28;20112;-40
2024/02/01 23:56:30;;;;;;;25.13;3.83;;;6.40;60.50;;;;;;20674445;28;20042;-39
